sensor_id;sensor_type;location;lat;lon;timestamp;P1;P2;P0
73623;PMS5003;61921;53.226;-1.296;2022-09-03T00:00:10;42;42;
73623;PMS5003;61921;53.226;-1.296;2022-09-03T00:02:37;47;43;
73623;PMS5003;61921;53.226;-1.296;2022-09-03T00:05:02;42;41;
73623;PMS5003;61921;53.226;-1.296;2022-09-03T00:07:27;47;47;
73623;PMS5003;61921;53.226;-1.296;2022-09-03T00:09:52;50;41;
73623;PMS5003;61921;53.226;-1.296;2022-09-03T00:12:18;46;45;
73623;PMS5003;61921;53.226;-1.296;2022-09-03T00:14:44;48;45;
73623;PMS5003;61921;53.226;-1.296;2022-09-03T00:17:08;42;42;
73623;PMS5003;61921;53.226;-1.296;2022-09-03T00:19:35;42;41;
73623;PMS5003;61921;53.226;-1.296;2022-09-03T00:22:01;50;48;
73623;PMS5003;61921;53.226;-1.296;2022-09-03T00:24:26;41;40;
73623;PMS5003;61921;53.226;-1.296;2022-09-03T00:26:51;44;43;
73623;PMS5003;61921;53.226;-1.296;2022-09-03T00:29:16;39;39;
73623;PMS5003;61921;53.226;-1.296;2022-09-03T00:31:41;45;41;
73623;PMS5003;61921;53.226;-1.296;2022-09-03T00:34:08;50;45;
73623;PMS5003;61921;53.226;-1.296;2022-09-03T00:36:34;50;45;
73623;PMS5003;61921;53.226;-1.296;2022-09-03T00:38:58;46;43;
73623;PMS5003;61921;53.226;-1.296;2022-09-03T00:41:26;57;50;
73623;PMS5003;61921;53.226;-1.296;2022-09-03T00:43:55;50;47;
73623;PMS5003;61921;53.226;-1.296;2022-09-03T00:46:16;44;43;
73623;PMS5003;61921;53.226;-1.296;2022-09-03T00:48:44;48;48;
73623;PMS5003;61921;53.226;-1.296;2022-09-03T00:51:09;47;45;
73623;PMS5003;61921;53.226;-1.296;2022-09-03T00:53:32;46;44;
73623;PMS5003;61921;53.226;-1.296;2022-09-03T00:55:57;51;49;
73623;PMS5003;61921;53.226;-1.296;2022-09-03T00:58:26;49;47;
73623;PMS5003;61921;53.226;-1.296;2022-09-03T01:00:47;53;50;
73623;PMS5003;61921;53.226;-1.296;2022-09-03T01:03:13;48;46;
73623;PMS5003;61921;53.226;-1.296;2022-09-03T01:05:40;54;50;
73623;PMS5003;61921;53.226;-1.296;2022-09-03T01:08:06;48;42;
73623;PMS5003;61921;53.226;-1.296;2022-09-03T01:10:29;38;38;
73623;PMS5003;61921;53.226;-1.296;2022-09-03T01:12:54;41;37;
73623;PMS5003;61921;53.226;-1.296;2022-09-03T01:15:20;44;42;
73623;PMS5003;61921;53.226;-1.296;2022-09-03T01:17:49;42;39;
73623;PMS5003;61921;53.226;-1.296;2022-09-03T01:20:13;42;40;
73623;PMS5003;61921;53.226;-1.296;2022-09-03T01:22:41;47;46;
73623;PMS5003;61921;53.226;-1.296;2022-09-03T01:25:07;42;42;
73623;PMS5003;61921;53.226;-1.296;2022-09-03T01:27:31;45;40;
73623;PMS5003;61921;53.226;-1.296;2022-09-03T01:29:52;49;47;
73623;PMS5003;61921;53.226;-1.296;2022-09-03T01:32:18;43;43;
73623;PMS5003;61921;53.226;-1.296;2022-09-03T01:34:44;54;49;
73623;PMS5003;61921;53.226;-1.296;2022-09-03T01:37:10;48;46;
73623;PMS5003;61921;53.226;-1.296;2022-09-03T01:39:36;45;45;
73623;PMS5003;61921;53.226;-1.296;2022-09-03T01:42:00;58;53;
73623;PMS5003;61921;53.226;-1.296;2022-09-03T01:44:26;47;45;
73623;PMS5003;61921;53.226;-1.296;2022-09-03T01:46:49;55;53;
73623;PMS5003;61921;53.226;-1.296;2022-09-03T01:49:16;53;49;
73623;PMS5003;61921;53.226;-1.296;2022-09-03T01:51:40;50;48;
73623;PMS5003;61921;53.226;-1.296;2022-09-03T01:54:12;64;57;
73623;PMS5003;61921;53.226;-1.296;2022-09-03T01:56:34;58;56;
73623;PMS5003;61921;53.226;-1.296;2022-09-03T01:58:58;62;60;
73623;PMS5003;61921;53.226;-1.296;2022-09-03T02:01:23;60;55;
73623;PMS5003;61921;53.226;-1.296;2022-09-03T02:03:47;64;57;
73623;PMS5003;61921;53.226;-1.296;2022-09-03T02:06:12;62;58;
73623;PMS5003;61921;53.226;-1.296;2022-09-03T02:08:38;58;52;
73623;PMS5003;61921;53.226;-1.296;2022-09-03T02:11:04;59;54;
73623;PMS5003;61921;53.226;-1.296;2022-09-03T02:13:30;57;56;
73623;PMS5003;61921;53.226;-1.296;2022-09-03T02:15:55;60;58;
73623;PMS5003;61921;53.226;-1.296;2022-09-03T02:18:21;56;54;
73623;PMS5003;61921;53.226;-1.296;2022-09-03T02:20:45;57;56;
73623;PMS5003;61921;53.226;-1.296;2022-09-03T02:23:11;62;59;
73623;PMS5003;61921;53.226;-1.296;2022-09-03T02:25:37;63;61;
73623;PMS5003;61921;53.226;-1.296;2022-09-03T02:28:02;60;57;
73623;PMS5003;61921;53.226;-1.296;2022-09-03T02:30:27;63;57;
73623;PMS5003;61921;53.226;-1.296;2022-09-03T02:32:53;57;52;
73623;PMS5003;61921;53.226;-1.296;2022-09-03T02:35:18;62;58;
73623;PMS5003;61921;53.226;-1.296;2022-09-03T02:37:43;61;58;
73623;PMS5003;61921;53.226;-1.296;2022-09-03T02:40:08;60;56;
73623;PMS5003;61921;53.226;-1.296;2022-09-03T02:42:34;59;58;
73623;PMS5003;61921;53.226;-1.296;2022-09-03T02:45:00;61;58;
73623;PMS5003;61921;53.226;-1.296;2022-09-03T02:47:27;70;68;
73623;PMS5003;61921;53.226;-1.296;2022-09-03T02:49:50;64;59;
73623;PMS5003;61921;53.226;-1.296;2022-09-03T02:52:15;57;57;
73623;PMS5003;61921;53.226;-1.296;2022-09-03T02:54:40;56;54;
73623;PMS5003;61921;53.226;-1.296;2022-09-03T02:57:06;56;55;
73623;PMS5003;61921;53.226;-1.296;2022-09-03T02:59:32;59;55;
73623;PMS5003;61921;53.226;-1.296;2022-09-03T03:01:57;56;55;
73623;PMS5003;61921;53.226;-1.296;2022-09-03T03:04:22;59;57;
73623;PMS5003;61921;53.226;-1.296;2022-09-03T03:06:48;57;55;
73623;PMS5003;61921;53.226;-1.296;2022-09-03T03:09:13;68;63;
73623;PMS5003;61921;53.226;-1.296;2022-09-03T03:11:38;58;57;
73623;PMS5003;61921;53.226;-1.296;2022-09-03T03:14:03;66;61;
73623;PMS5003;61921;53.226;-1.296;2022-09-03T03:16:29;65;59;
73623;PMS5003;61921;53.226;-1.296;2022-09-03T03:18:54;65;58;
73623;PMS5003;61921;53.226;-1.296;2022-09-03T03:21:20;55;52;
73623;PMS5003;61921;53.226;-1.296;2022-09-03T03:23:45;69;62;
73623;PMS5003;61921;53.226;-1.296;2022-09-03T03:26:11;61;60;
73623;PMS5003;61921;53.226;-1.296;2022-09-03T03:28:36;71;66;
73623;PMS5003;61921;53.226;-1.296;2022-09-03T03:31:05;70;65;
73623;PMS5003;61921;53.226;-1.296;2022-09-03T03:33:27;67;64;
73623;PMS5003;61921;53.226;-1.296;2022-09-03T03:35:53;74;71;
73623;PMS5003;61921;53.226;-1.296;2022-09-03T03:38:19;65;61;
73623;PMS5003;61921;53.226;-1.296;2022-09-03T03:40:44;77;73;
73623;PMS5003;61921;53.226;-1.296;2022-09-03T03:43:09;71;66;
73623;PMS5003;61921;53.226;-1.296;2022-09-03T03:45:35;81;73;
73623;PMS5003;61921;53.226;-1.296;2022-09-03T03:48:01;72;69;
73623;PMS5003;61921;53.226;-1.296;2022-09-03T03:50:26;69;62;
73623;PMS5003;61921;53.226;-1.296;2022-09-03T03:52:51;72;70;
73623;PMS5003;61921;53.226;-1.296;2022-09-03T03:55:17;76;70;
73623;PMS5003;61921;53.226;-1.296;2022-09-03T03:57:42;69;65;
73623;PMS5003;61921;53.226;-1.296;2022-09-03T04:00:08;74;68;
73623;PMS5003;61921;53.226;-1.296;2022-09-03T04:02:34;75;66;
73623;PMS5003;61921;53.226;-1.296;2022-09-03T04:04:59;73;71;
73623;PMS5003;61921;53.226;-1.296;2022-09-03T04:07:25;73;68;
73623;PMS5003;61921;53.226;-1.296;2022-09-03T04:09:50;75;70;
73623;PMS5003;61921;53.226;-1.296;2022-09-03T04:12:16;80;76;
73623;PMS5003;61921;53.226;-1.296;2022-09-03T04:14:41;74;69;
73623;PMS5003;61921;53.226;-1.296;2022-09-03T04:17:07;70;68;
73623;PMS5003;61921;53.226;-1.296;2022-09-03T04:19:32;70;63;
73623;PMS5003;61921;53.226;-1.296;2022-09-03T04:21:57;68;61;
73623;PMS5003;61921;53.226;-1.296;2022-09-03T04:24:23;75;69;
73623;PMS5003;61921;53.226;-1.296;2022-09-03T04:26:49;69;66;
73623;PMS5003;61921;53.226;-1.296;2022-09-03T04:29:14;73;66;
73623;PMS5003;61921;53.226;-1.296;2022-09-03T04:31:40;72;62;
73623;PMS5003;61921;53.226;-1.296;2022-09-03T04:34:05;73;69;
73623;PMS5003;61921;53.226;-1.296;2022-09-03T04:36:31;69;66;
73623;PMS5003;61921;53.226;-1.296;2022-09-03T04:38:57;68;66;
73623;PMS5003;61921;53.226;-1.296;2022-09-03T04:41:22;71;69;
73623;PMS5003;61921;53.226;-1.296;2022-09-03T04:43:49;68;64;
73623;PMS5003;61921;53.226;-1.296;2022-09-03T04:46:13;68;65;
73623;PMS5003;61921;53.226;-1.296;2022-09-03T04:48:38;73;71;
73623;PMS5003;61921;53.226;-1.296;2022-09-03T04:51:04;67;63;
73623;PMS5003;61921;53.226;-1.296;2022-09-03T04:53:29;68;65;
73623;PMS5003;61921;53.226;-1.296;2022-09-03T04:55:54;62;58;
73623;PMS5003;61921;53.226;-1.296;2022-09-03T04:58:19;59;59;
73623;PMS5003;61921;53.226;-1.296;2022-09-03T05:00:44;69;68;
73623;PMS5003;61921;53.226;-1.296;2022-09-03T05:03:10;73;70;
73623;PMS5003;61921;53.226;-1.296;2022-09-03T05:05:35;70;66;
73623;PMS5003;61921;53.226;-1.296;2022-09-03T05:08:01;69;64;
73623;PMS5003;61921;53.226;-1.296;2022-09-03T05:10:26;72;66;
73623;PMS5003;61921;53.226;-1.296;2022-09-03T05:15:17;73;69;
73623;PMS5003;61921;53.226;-1.296;2022-09-03T05:17:42;65;62;
73623;PMS5003;61921;53.226;-1.296;2022-09-03T05:20:08;74;67;
73623;PMS5003;61921;53.226;-1.296;2022-09-03T05:22:34;66;64;
73623;PMS5003;61921;53.226;-1.296;2022-09-03T05:24:59;63;62;
73623;PMS5003;61921;53.226;-1.296;2022-09-03T05:27:25;70;67;
73623;PMS5003;61921;53.226;-1.296;2022-09-03T05:29:50;65;64;
73623;PMS5003;61921;53.226;-1.296;2022-09-03T05:32:15;67;63;
73623;PMS5003;61921;53.226;-1.296;2022-09-03T05:34:40;67;66;
73623;PMS5003;61921;53.226;-1.296;2022-09-03T05:37:06;69;66;
73623;PMS5003;61921;53.226;-1.296;2022-09-03T05:39:31;82;72;
73623;PMS5003;61921;53.226;-1.296;2022-09-03T05:41:56;67;66;
73623;PMS5003;61921;53.226;-1.296;2022-09-03T05:44:22;74;65;
73623;PMS5003;61921;53.226;-1.296;2022-09-03T05:46:47;68;63;
73623;PMS5003;61921;53.226;-1.296;2022-09-03T05:49:12;70;68;
73623;PMS5003;61921;53.226;-1.296;2022-09-03T05:51:38;71;67;
73623;PMS5003;61921;53.226;-1.296;2022-09-03T05:54:03;67;66;
73623;PMS5003;61921;53.226;-1.296;2022-09-03T05:56:29;70;69;
73623;PMS5003;61921;53.226;-1.296;2022-09-03T05:58:55;72;68;
73623;PMS5003;61921;53.226;-1.296;2022-09-03T06:01:20;71;70;
73623;PMS5003;61921;53.226;-1.296;2022-09-03T06:03:45;74;68;
73623;PMS5003;61921;53.226;-1.296;2022-09-03T06:06:10;72;66;
73623;PMS5003;61921;53.226;-1.296;2022-09-03T06:08:36;73;65;
73623;PMS5003;61921;53.226;-1.296;2022-09-03T06:11:01;70;70;
73623;PMS5003;61921;53.226;-1.296;2022-09-03T06:13:26;66;62;
73623;PMS5003;61921;53.226;-1.296;2022-09-03T06:15:55;71;68;
73623;PMS5003;61921;53.226;-1.296;2022-09-03T06:18:17;76;72;
73623;PMS5003;61921;53.226;-1.296;2022-09-03T06:20:42;79;72;
73623;PMS5003;61921;53.226;-1.296;2022-09-03T06:23:07;71;68;
73623;PMS5003;61921;53.226;-1.296;2022-09-03T06:25:33;74;74;
73623;PMS5003;61921;53.226;-1.296;2022-09-03T06:27:59;81;77;
73623;PMS5003;61921;53.226;-1.296;2022-09-03T06:30:25;69;67;
73623;PMS5003;61921;53.226;-1.296;2022-09-03T06:32:50;71;67;
73623;PMS5003;61921;53.226;-1.296;2022-09-03T06:35:16;69;66;
73623;PMS5003;61921;53.226;-1.296;2022-09-03T06:37:42;76;72;
73623;PMS5003;61921;53.226;-1.296;2022-09-03T06:40:08;73;69;
73623;PMS5003;61921;53.226;-1.296;2022-09-03T06:42:32;92;84;
73623;PMS5003;61921;53.226;-1.296;2022-09-03T06:44:57;73;69;
73623;PMS5003;61921;53.226;-1.296;2022-09-03T06:47:23;72;70;
73623;PMS5003;61921;53.226;-1.296;2022-09-03T06:49:49;77;69;
73623;PMS5003;61921;53.226;-1.296;2022-09-03T06:52:14;73;68;
73623;PMS5003;61921;53.226;-1.296;2022-09-03T06:54:39;74;70;
73623;PMS5003;61921;53.226;-1.296;2022-09-03T06:57:05;75;71;
73623;PMS5003;61921;53.226;-1.296;2022-09-03T06:59:30;87;82;
73623;PMS5003;61921;53.226;-1.296;2022-09-03T07:01:55;85;80;
73623;PMS5003;61921;53.226;-1.296;2022-09-03T07:04:20;74;69;
73623;PMS5003;61921;53.226;-1.296;2022-09-03T07:06:45;76;70;
73623;PMS5003;61921;53.226;-1.296;2022-09-03T07:09:11;71;65;
73623;PMS5003;61921;53.226;-1.296;2022-09-03T07:11:36;68;62;
73623;PMS5003;61921;53.226;-1.296;2022-09-03T07:14:02;73;69;
73623;PMS5003;61921;53.226;-1.296;2022-09-03T07:16:28;75;70;
73623;PMS5003;61921;53.226;-1.296;2022-09-03T07:18:53;71;68;
73623;PMS5003;61921;53.226;-1.296;2022-09-03T07:21:19;77;76;
73623;PMS5003;61921;53.226;-1.296;2022-09-03T07:23:44;73;70;
73623;PMS5003;61921;53.226;-1.296;2022-09-03T07:26:10;68;64;
73623;PMS5003;61921;53.226;-1.296;2022-09-03T07:28:35;75;68;
73623;PMS5003;61921;53.226;-1.296;2022-09-03T07:31:01;74;72;
73623;PMS5003;61921;53.226;-1.296;2022-09-03T07:33:27;76;70;
73623;PMS5003;61921;53.226;-1.296;2022-09-03T07:35:51;69;67;
73623;PMS5003;61921;53.226;-1.296;2022-09-03T07:38:16;74;73;
73623;PMS5003;61921;53.226;-1.296;2022-09-03T07:40:42;75;73;
73623;PMS5003;61921;53.226;-1.296;2022-09-03T07:43:07;73;68;
73623;PMS5003;61921;53.226;-1.296;2022-09-03T07:45:33;67;65;
73623;PMS5003;61921;53.226;-1.296;2022-09-03T07:47:59;77;74;
73623;PMS5003;61921;53.226;-1.296;2022-09-03T07:50:24;72;70;
73623;PMS5003;61921;53.226;-1.296;2022-09-03T07:52:54;79;77;
73623;PMS5003;61921;53.226;-1.296;2022-09-03T07:55:15;75;75;
73623;PMS5003;61921;53.226;-1.296;2022-09-03T07:57:41;93;80;
73623;PMS5003;61921;53.226;-1.296;2022-09-03T08:00:07;80;73;
73623;PMS5003;61921;53.226;-1.296;2022-09-03T08:02:32;78;78;
73623;PMS5003;61921;53.226;-1.296;2022-09-03T08:04:58;79;75;
73623;PMS5003;61921;53.226;-1.296;2022-09-03T08:07:23;85;77;
73623;PMS5003;61921;53.226;-1.296;2022-09-03T08:09:48;84;78;
73623;PMS5003;61921;53.226;-1.296;2022-09-03T08:12:14;84;81;
73623;PMS5003;61921;53.226;-1.296;2022-09-03T08:14:39;86;83;
73623;PMS5003;61921;53.226;-1.296;2022-09-03T08:17:05;88;80;
73623;PMS5003;61921;53.226;-1.296;2022-09-03T08:19:30;81;73;
73623;PMS5003;61921;53.226;-1.296;2022-09-03T08:21:56;88;83;
73623;PMS5003;61921;53.226;-1.296;2022-09-03T08:24:21;83;79;
73623;PMS5003;61921;53.226;-1.296;2022-09-03T08:26:46;82;80;
73623;PMS5003;61921;53.226;-1.296;2022-09-03T08:29:12;78;77;
73623;PMS5003;61921;53.226;-1.296;2022-09-03T08:31:37;87;81;
73623;PMS5003;61921;53.226;-1.296;2022-09-03T08:34:04;73;71;
73623;PMS5003;61921;53.226;-1.296;2022-09-03T08:36:29;92;87;
73623;PMS5003;61921;53.226;-1.296;2022-09-03T08:38:53;82;78;
73623;PMS5003;61921;53.226;-1.296;2022-09-03T08:41:19;83;77;
73623;PMS5003;61921;53.226;-1.296;2022-09-03T08:43:51;82;77;
73623;PMS5003;61921;53.226;-1.296;2022-09-03T08:46:09;84;79;
73623;PMS5003;61921;53.226;-1.296;2022-09-03T08:48:34;85;82;
73623;PMS5003;61921;53.226;-1.296;2022-09-03T08:51:00;80;78;
73623;PMS5003;61921;53.226;-1.296;2022-09-03T08:53:26;82;80;
73623;PMS5003;61921;53.226;-1.296;2022-09-03T08:55:51;87;81;
73623;PMS5003;61921;53.226;-1.296;2022-09-03T08:58:16;90;83;
73623;PMS5003;61921;53.226;-1.296;2022-09-03T09:00:45;90;84;
73623;PMS5003;61921;53.226;-1.296;2022-09-03T09:03:20;84;76;
73623;PMS5003;61921;53.226;-1.296;2022-09-03T09:05:36;87;77;
73623;PMS5003;61921;53.226;-1.296;2022-09-03T09:07:59;81;75;
73623;PMS5003;61921;53.226;-1.296;2022-09-03T09:10:24;90;78;
73623;PMS5003;61921;53.226;-1.296;2022-09-03T09:12:50;83;80;
73623;PMS5003;61921;53.226;-1.296;2022-09-03T09:15:17;77;74;
73623;PMS5003;61921;53.226;-1.296;2022-09-03T09:17:47;87;82;
73623;PMS5003;61921;53.226;-1.296;2022-09-03T09:20:07;77;74;
73623;PMS5003;61921;53.226;-1.296;2022-09-03T09:22:32;89;79;
73623;PMS5003;61921;53.226;-1.296;2022-09-03T09:24:56;75;73;
73623;PMS5003;61921;53.226;-1.296;2022-09-03T09:27:21;75;69;
73623;PMS5003;61921;53.226;-1.296;2022-09-03T09:29:47;79;73;
73623;PMS5003;61921;53.226;-1.296;2022-09-03T09:32:12;67;65;
73623;PMS5003;61921;53.226;-1.296;2022-09-03T09:34:38;73;67;
73623;PMS5003;61921;53.226;-1.296;2022-09-03T09:37:03;68;66;
73623;PMS5003;61921;53.226;-1.296;2022-09-03T09:39:28;74;69;
73623;PMS5003;61921;53.226;-1.296;2022-09-03T09:41:55;75;70;
73623;PMS5003;61921;53.226;-1.296;2022-09-03T09:44:19;70;70;
73623;PMS5003;61921;53.226;-1.296;2022-09-03T09:46:44;70;66;
73623;PMS5003;61921;53.226;-1.296;2022-09-03T09:51:35;65;63;
73623;PMS5003;61921;53.226;-1.296;2022-09-03T09:54:01;70;66;
73623;PMS5003;61921;53.226;-1.296;2022-09-03T09:56:26;74;69;
73623;PMS5003;61921;53.226;-1.296;2022-09-03T10:01:18;76;71;
73623;PMS5003;61921;53.226;-1.296;2022-09-03T10:06:08;73;70;
73623;PMS5003;61921;53.226;-1.296;2022-09-03T10:08:33;70;64;
73623;PMS5003;61921;53.226;-1.296;2022-09-03T10:10:59;66;61;
73623;PMS5003;61921;53.226;-1.296;2022-09-03T10:13:25;61;60;
73623;PMS5003;61921;53.226;-1.296;2022-09-03T10:15:50;68;62;
73623;PMS5003;61921;53.226;-1.296;2022-09-03T10:18:16;66;63;
73623;PMS5003;61921;53.226;-1.296;2022-09-03T10:20:42;69;65;
73623;PMS5003;61921;53.226;-1.296;2022-09-03T10:23:08;70;66;
73623;PMS5003;61921;53.226;-1.296;2022-09-03T10:25:37;61;59;
73623;PMS5003;61921;53.226;-1.296;2022-09-03T10:27:56;67;62;
73623;PMS5003;61921;53.226;-1.296;2022-09-03T10:30:22;62;59;
73623;PMS5003;61921;53.226;-1.296;2022-09-03T10:32:49;61;59;
73623;PMS5003;61921;53.226;-1.296;2022-09-03T10:35:22;67;66;
73623;PMS5003;61921;53.226;-1.296;2022-09-03T10:37:39;65;61;
73623;PMS5003;61921;53.226;-1.296;2022-09-03T10:40:06;65;61;
73623;PMS5003;61921;53.226;-1.296;2022-09-03T10:42:33;64;56;
73623;PMS5003;61921;53.226;-1.296;2022-09-03T10:44:57;57;54;
73623;PMS5003;61921;53.226;-1.296;2022-09-03T10:47:23;66;63;
73623;PMS5003;61921;53.226;-1.296;2022-09-03T10:49:48;66;62;
73623;PMS5003;61921;53.226;-1.296;2022-09-03T10:52:12;58;57;
73623;PMS5003;61921;53.226;-1.296;2022-09-03T10:54:38;58;56;
73623;PMS5003;61921;53.226;-1.296;2022-09-03T10:57:02;50;47;
73623;PMS5003;61921;53.226;-1.296;2022-09-03T10:59:31;59;57;
73623;PMS5003;61921;53.226;-1.296;2022-09-03T11:01:54;51;50;
73623;PMS5003;61921;53.226;-1.296;2022-09-03T11:04:19;47;46;
73623;PMS5003;61921;53.226;-1.296;2022-09-03T11:06:45;54;52;
73623;PMS5003;61921;53.226;-1.296;2022-09-03T11:09:10;54;52;
73623;PMS5003;61921;53.226;-1.296;2022-09-03T11:11:34;51;51;
73623;PMS5003;61921;53.226;-1.296;2022-09-03T11:13:58;52;49;
73623;PMS5003;61921;53.226;-1.296;2022-09-03T11:16:24;60;58;
73623;PMS5003;61921;53.226;-1.296;2022-09-03T11:18:50;59;56;
73623;PMS5003;61921;53.226;-1.296;2022-09-03T11:21:15;49;44;
73623;PMS5003;61921;53.226;-1.296;2022-09-03T11:23:40;58;58;
73623;PMS5003;61921;53.226;-1.296;2022-09-03T11:26:06;51;47;
73623;PMS5003;61921;53.226;-1.296;2022-09-03T11:28:34;60;59;
73623;PMS5003;61921;53.226;-1.296;2022-09-03T11:33:22;55;50;
73623;PMS5003;61921;53.226;-1.296;2022-09-03T11:40:39;43;39;
73623;PMS5003;61921;53.226;-1.296;2022-09-03T11:43:04;43;39;
73623;PMS5003;61921;53.226;-1.296;2022-09-03T11:45:33;35;34;
73623;PMS5003;61921;53.226;-1.296;2022-09-03T11:47:54;38;37;
73623;PMS5003;61921;53.226;-1.296;2022-09-03T11:50:21;37;37;
73623;PMS5003;61921;53.226;-1.296;2022-09-03T11:52:45;38;38;
73623;PMS5003;61921;53.226;-1.296;2022-09-03T11:55:10;38;36;
73623;PMS5003;61921;53.226;-1.296;2022-09-03T11:57:39;39;38;
73623;PMS5003;61921;53.226;-1.296;2022-09-03T12:00:07;35;34;
73623;PMS5003;61921;53.226;-1.296;2022-09-03T12:02:26;32;30;
73623;PMS5003;61921;53.226;-1.296;2022-09-03T12:04:55;34;34;
73623;PMS5003;61921;53.226;-1.296;2022-09-03T12:07:23;34;30;
73623;PMS5003;61921;53.226;-1.296;2022-09-03T12:09:50;30;28;
73623;PMS5003;61921;53.226;-1.296;2022-09-03T12:12:11;33;30;
73623;PMS5003;61921;53.226;-1.296;2022-09-03T12:14:35;27;27;
73623;PMS5003;61921;53.226;-1.296;2022-09-03T12:17:03;27;24;
73623;PMS5003;61921;53.226;-1.296;2022-09-03T12:19:26;24;24;
73623;PMS5003;61921;53.226;-1.296;2022-09-03T12:21:50;23;22;
73623;PMS5003;61921;53.226;-1.296;2022-09-03T12:24:15;23;21;
73623;PMS5003;61921;53.226;-1.296;2022-09-03T12:26:41;21;21;
73623;PMS5003;61921;53.226;-1.296;2022-09-03T12:31:42;28;26;
73623;PMS5003;61921;53.226;-1.296;2022-09-03T12:33:58;22;22;
73623;PMS5003;61921;53.226;-1.296;2022-09-03T12:36:24;26;22;
73623;PMS5003;61921;53.226;-1.296;2022-09-03T12:38:49;20;20;
73623;PMS5003;61921;53.226;-1.296;2022-09-03T12:41:19;23;23;
73623;PMS5003;61921;53.226;-1.296;2022-09-03T12:43:40;21;20;
73623;PMS5003;61921;53.226;-1.296;2022-09-03T12:48:31;19;18;
73623;PMS5003;61921;53.226;-1.296;2022-09-03T12:51:00;21;21;
73623;PMS5003;61921;53.226;-1.296;2022-09-03T12:53:23;25;23;
73623;PMS5003;61921;53.226;-1.296;2022-09-03T12:55:49;22;21;
73623;PMS5003;61921;53.226;-1.296;2022-09-03T12:58:14;16;16;
73623;PMS5003;61921;53.226;-1.296;2022-09-03T13:00:40;19;19;
73623;PMS5003;61921;53.226;-1.296;2022-09-03T13:03:05;18;17;
73623;PMS5003;61921;53.226;-1.296;2022-09-03T13:05:31;19;18;
73623;PMS5003;61921;53.226;-1.296;2022-09-03T13:07:56;15;12;
73623;PMS5003;61921;53.226;-1.296;2022-09-03T13:10:23;17;15;
73623;PMS5003;61921;53.226;-1.296;2022-09-03T13:12:47;15;15;
73623;PMS5003;61921;53.226;-1.296;2022-09-03T13:15:17;13;13;
73623;PMS5003;61921;53.226;-1.296;2022-09-03T13:22:32;11;11;
73623;PMS5003;61921;53.226;-1.296;2022-09-03T13:24:59;14;13;
73623;PMS5003;61921;53.226;-1.296;2022-09-03T13:27:22;12;10;
73623;PMS5003;61921;53.226;-1.296;2022-09-03T13:29:52;13;12;
73623;PMS5003;61921;53.226;-1.296;2022-09-03T13:32:16;9;9;
73623;PMS5003;61921;53.226;-1.296;2022-09-03T13:34:39;9;9;
73623;PMS5003;61921;53.226;-1.296;2022-09-03T13:37:08;12;12;
73623;PMS5003;61921;53.226;-1.296;2022-09-03T13:39:32;10;10;
73623;PMS5003;61921;53.226;-1.296;2022-09-03T13:41:57;11;11;
73623;PMS5003;61921;53.226;-1.296;2022-09-03T13:44:26;13;11;
73623;PMS5003;61921;53.226;-1.296;2022-09-03T13:46:50;11;10;
73623;PMS5003;61921;53.226;-1.296;2022-09-03T13:49:19;12;12;
73623;PMS5003;61921;53.226;-1.296;2022-09-03T13:51:41;13;13;
73623;PMS5003;61921;53.226;-1.296;2022-09-03T13:54:06;12;12;
73623;PMS5003;61921;53.226;-1.296;2022-09-03T13:56:34;13;11;
73623;PMS5003;61921;53.226;-1.296;2022-09-03T13:58:59;12;12;
73623;PMS5003;61921;53.226;-1.296;2022-09-03T14:01:24;15;12;
73623;PMS5003;61921;53.226;-1.296;2022-09-03T14:03:49;11;11;
73623;PMS5003;61921;53.226;-1.296;2022-09-03T14:06:18;16;13;
73623;PMS5003;61921;53.226;-1.296;2022-09-03T14:08:47;12;12;
73623;PMS5003;61921;53.226;-1.296;2022-09-03T14:11:12;12;12;
73623;PMS5003;61921;53.226;-1.296;2022-09-03T14:13:40;11;11;
73623;PMS5003;61921;53.226;-1.296;2022-09-03T14:15:58;17;17;
73623;PMS5003;61921;53.226;-1.296;2022-09-03T14:18:26;12;12;
73623;PMS5003;61921;53.226;-1.296;2022-09-03T14:20:48;11;11;
73623;PMS5003;61921;53.226;-1.296;2022-09-03T14:23:20;16;15;
73623;PMS5003;61921;53.226;-1.296;2022-09-03T14:25:38;15;14;
73623;PMS5003;61921;53.226;-1.296;2022-09-03T14:30:32;15;14;
73623;PMS5003;61921;53.226;-1.296;2022-09-03T14:32:55;14;14;
73623;PMS5003;61921;53.226;-1.296;2022-09-03T14:37:55;11;11;
73623;PMS5003;61921;53.226;-1.296;2022-09-03T14:40:12;10;10;
73623;PMS5003;61921;53.226;-1.296;2022-09-03T14:42:38;12;12;
73623;PMS5003;61921;53.226;-1.296;2022-09-03T14:47:29;9;9;
73623;PMS5003;61921;53.226;-1.296;2022-09-03T14:49:59;11;11;
73623;PMS5003;61921;53.226;-1.296;2022-09-03T14:52:22;12;12;
73623;PMS5003;61921;53.226;-1.296;2022-09-03T14:54:50;9;9;
73623;PMS5003;61921;53.226;-1.296;2022-09-03T14:57:11;12;11;
73623;PMS5003;61921;53.226;-1.296;2022-09-03T14:59:36;14;13;
73623;PMS5003;61921;53.226;-1.296;2022-09-03T15:04:37;14;14;
73623;PMS5003;61921;53.226;-1.296;2022-09-03T15:06:52;9;8;
73623;PMS5003;61921;53.226;-1.296;2022-09-03T15:09:18;14;12;
73623;PMS5003;61921;53.226;-1.296;2022-09-03T15:11:45;13;13;
73623;PMS5003;61921;53.226;-1.296;2022-09-03T15:14:06;15;13;
73623;PMS5003;61921;53.226;-1.296;2022-09-03T15:16:34;13;12;
73623;PMS5003;61921;53.226;-1.296;2022-09-03T15:18:58;13;13;
73623;PMS5003;61921;53.226;-1.296;2022-09-03T15:21:22;11;11;
73623;PMS5003;61921;53.226;-1.296;2022-09-03T15:23:49;10;10;
73623;PMS5003;61921;53.226;-1.296;2022-09-03T15:28:37;11;11;
73623;PMS5003;61921;53.226;-1.296;2022-09-03T15:31:02;10;10;
73623;PMS5003;61921;53.226;-1.296;2022-09-03T15:33:29;12;11;
73623;PMS5003;61921;53.226;-1.296;2022-09-03T15:36:02;11;11;
73623;PMS5003;61921;53.226;-1.296;2022-09-03T15:38:19;14;14;
73623;PMS5003;61921;53.226;-1.296;2022-09-03T15:40:47;14;12;
73623;PMS5003;61921;53.226;-1.296;2022-09-03T15:43:09;16;15;
73623;PMS5003;61921;53.226;-1.296;2022-09-03T15:45:34;11;11;
73623;PMS5003;61921;53.226;-1.296;2022-09-03T15:48:03;12;12;
73623;PMS5003;61921;53.226;-1.296;2022-09-03T15:50:25;14;13;
73623;PMS5003;61921;53.226;-1.296;2022-09-03T15:52:51;14;12;
73623;PMS5003;61921;53.226;-1.296;2022-09-03T15:55:13;12;12;
73623;PMS5003;61921;53.226;-1.296;2022-09-03T15:57:40;12;12;
73623;PMS5003;61921;53.226;-1.296;2022-09-03T16:00:05;16;16;
73623;PMS5003;61921;53.226;-1.296;2022-09-03T16:02:30;14;14;
73623;PMS5003;61921;53.226;-1.296;2022-09-03T16:04:58;16;15;
73623;PMS5003;61921;53.226;-1.296;2022-09-03T16:07:21;16;16;
73623;PMS5003;61921;53.226;-1.296;2022-09-03T16:09:45;16;15;
73623;PMS5003;61921;53.226;-1.296;2022-09-03T16:12:16;14;14;
73623;PMS5003;61921;53.226;-1.296;2022-09-03T16:14:35;14;14;
73623;PMS5003;61921;53.226;-1.296;2022-09-03T16:17:00;15;13;
73623;PMS5003;61921;53.226;-1.296;2022-09-03T16:19:25;16;16;
73623;PMS5003;61921;53.226;-1.296;2022-09-03T16:21:50;12;11;
73623;PMS5003;61921;53.226;-1.296;2022-09-03T16:24:16;16;12;
73623;PMS5003;61921;53.226;-1.296;2022-09-03T16:26:41;14;14;